createdAt,value
2023-09-17T00:02:52.806Z,90.43
2023-09-17T00:06:40.641Z,90.14
2023-09-17T00:10:28.389Z,90.74
2023-09-17T00:14:16.012Z,90.57
2023-09-17T00:18:03.798Z,90.74
2023-09-17T00:21:51.558Z,90.83
2023-09-17T00:25:39.125Z,91.07
2023-09-17T00:29:26.832Z,90.71
2023-09-17T00:33:14.412Z,90.75
2023-09-17T00:37:02.099Z,91.05
2023-09-17T00:40:50.085Z,90.70
2023-09-17T00:44:38.025Z,90.18
2023-09-17T00:48:25.778Z,90.12
2023-09-17T00:52:08.405Z,90.78
2023-09-17T00:55:54.711Z,91.19
2023-09-17T00:59:42.323Z,91.38
2023-09-17T01:03:30.069Z,91.06
2023-09-17T01:07:19.292Z,90.95
2023-09-17T01:11:07.290Z,91.52
2023-09-17T01:14:54.302Z,91.59
2023-09-17T01:18:41.919Z,91.22
2023-09-17T01:22:53.676Z,91.56
2023-09-17T01:26:49.759Z,90.93
2023-09-17T01:30:37.334Z,91.16
2023-09-17T01:34:25.222Z,91.13
2023-09-17T01:38:18.473Z,90.97
2023-09-17T01:42:06.285Z,91.18
2023-09-17T01:45:55.025Z,91.07
2023-09-17T01:49:42.784Z,91.43
2023-09-17T01:53:30.454Z,91.82
2023-09-17T01:57:10.527Z,92.23
2023-09-17T02:00:48.969Z,92.37
2023-09-17T02:04:36.807Z,92.88
2023-09-17T02:08:24.406Z,92.48
2023-09-17T02:12:12.027Z,92.95
2023-09-17T02:15:59.923Z,93.17
2023-09-17T02:19:47.690Z,92.91
2023-09-17T02:23:35.290Z,93.45
2023-09-17T02:27:22.890Z,93.18
2023-09-17T02:31:10.578Z,92.98
2023-09-17T02:34:58.200Z,93.24
2023-09-17T02:38:45.857Z,92.79
2023-09-17T02:42:33.517Z,92.94
2023-09-17T02:46:21.161Z,92.62
2023-09-17T02:50:08.957Z,92.78
2023-09-17T02:53:56.807Z,92.66
2023-09-17T02:57:44.577Z,92.35
2023-09-17T03:01:32.584Z,92.21
2023-09-17T03:05:20.360Z,92.38
2023-09-17T03:09:00.340Z,92.95
2023-09-17T03:12:48.031Z,93.14
2023-09-17T03:16:38.352Z,92.26
2023-09-17T03:20:26.068Z,92.82
2023-09-17T03:24:13.814Z,92.81
2023-09-17T03:28:01.556Z,92.86
2023-09-17T03:31:29.171Z,92.54
2023-09-17T03:35:16.881Z,92.33
2023-09-17T03:39:04.665Z,91.98
2023-09-17T03:42:52.275Z,91.99
2023-09-17T03:46:39.889Z,92.12
2023-09-17T03:50:27.652Z,92.32
2023-09-17T03:54:15.326Z,92.19
2023-09-17T03:58:03.323Z,91.86
2023-09-17T04:01:51.079Z,91.58
2023-09-17T04:05:38.695Z,91.82
2023-09-17T04:09:26.380Z,91.65
2023-09-17T04:13:14.078Z,91.53
2023-09-17T04:16:56.630Z,91.32
2023-09-17T04:20:44.431Z,91.66
2023-09-17T04:24:32.007Z,92.15
2023-09-17T04:28:19.767Z,92.56
2023-09-17T04:32:10.548Z,92.39
2023-09-17T04:35:50.686Z,92.44
2023-09-17T04:39:38.459Z,92.19
2023-09-17T04:43:26.199Z,92.10
2023-09-17T04:47:03.914Z,91.92
2023-09-17T04:50:51.698Z,91.79
2023-09-17T04:54:39.371Z,91.51
2023-09-17T04:58:27.193Z,90.77
2023-09-17T05:02:14.858Z,90.96
2023-09-17T05:06:02.641Z,91.13
2023-09-17T05:09:50.384Z,90.73
2023-09-17T05:13:38.052Z,90.43
2023-09-17T05:17:25.750Z,89.88
2023-09-17T05:21:13.445Z,89.72
2023-09-17T05:25:01.053Z,89.63
2023-09-17T05:28:48.790Z,89.39
2023-09-17T05:32:24.011Z,89.42
2023-09-17T05:36:12.038Z,89.30
2023-09-17T05:39:59.830Z,90.79
2023-09-17T05:43:47.299Z,90.12
2023-09-17T05:47:35.335Z,88.28
2023-09-17T05:51:21.717Z,87.68
2023-09-17T05:55:09.326Z,87.51
2023-09-17T05:58:57.058Z,87.59
2023-09-17T06:02:44.837Z,87.65
2023-09-17T06:06:32.521Z,87.35
2023-09-17T06:10:20.208Z,87.37
2023-09-17T06:14:07.936Z,86.89
2023-09-17T06:17:55.608Z,86.52
2023-09-17T06:21:43.383Z,86.69
2023-09-17T06:25:32.936Z,86.16
2023-09-17T06:29:20.850Z,86.21
2023-09-17T06:33:08.501Z,85.70
2023-09-17T06:36:56.302Z,85.69
2023-09-17T06:39:52.413Z,85.16
2023-09-17T06:43:32.950Z,85.25
2023-09-17T06:46:49.635Z,85.52
2023-09-17T06:50:17.081Z,85.57
2023-09-17T06:53:17.944Z,85.34
2023-09-17T06:56:01.111Z,85.04
2023-09-17T06:59:21.818Z,83.89
2023-09-17T07:01:49.050Z,83.56
2023-09-17T07:04:48.740Z,82.31
2023-09-17T07:07:19.395Z,80.85
2023-09-17T07:09:49.021Z,80.73
2023-09-17T07:12:21.676Z,80.18
2023-09-17T07:14:52.133Z,79.92
2023-09-17T07:17:49.236Z,79.05
2023-09-17T07:21:23.691Z,78.17
2023-09-17T07:24:39.916Z,77.45
2023-09-17T07:28:30.533Z,77.53
2023-09-17T07:32:18.478Z,76.78
2023-09-17T07:35:36.133Z,77.19
2023-09-17T07:39:23.940Z,77.03
2023-09-17T07:43:14.317Z,76.11
2023-09-17T07:46:58.068Z,74.57
2023-09-17T07:50:19.130Z,74.62
2023-09-17T07:53:52.424Z,73.19
2023-09-17T07:57:40.287Z,73.65
2023-09-17T08:01:18.090Z,72.69
2023-09-17T08:04:39.430Z,72.25
2023-09-17T08:08:26.033Z,71.98
2023-09-17T08:11:16.334Z,70.55
2023-09-17T08:14:26.578Z,70.09
2023-09-17T08:17:38.665Z,71.72
2023-09-17T08:21:06.175Z,71.30
2023-09-17T08:24:52.947Z,71.45
2023-09-17T08:28:33.388Z,70.99
2023-09-17T08:32:21.205Z,71.54
2023-09-17T08:36:06.302Z,70.81
2023-09-17T08:39:56.158Z,71.03
2023-09-17T08:43:43.786Z,70.76
2023-09-17T08:47:06.399Z,70.79
2023-09-17T08:50:25.580Z,70.86
2023-09-17T08:53:55.123Z,71.16
2023-09-17T08:57:16.569Z,70.28
2023-09-17T09:00:25.616Z,69.97
2023-09-17T09:03:57.768Z,69.57
2023-09-17T09:07:50.513Z,69.09
2023-09-17T09:11:14.364Z,69.53
2023-09-17T09:15:04.932Z,68.65
2023-09-17T09:18:52.207Z,67.37
2023-09-17T09:22:40.001Z,65.35
2023-09-17T09:26:16.791Z,65.06
2023-09-17T09:29:48.147Z,64.95
2023-09-17T09:33:21.847Z,62.91
2023-09-17T09:36:42.416Z,64.05
2023-09-17T09:40:12.227Z,65.01
2023-09-17T09:43:20.841Z,64.62
2023-09-17T09:47:06.421Z,63.39
2023-09-17T09:50:55.900Z,62.67
2023-09-17T09:54:33.643Z,63.03
2023-09-17T09:58:14.224Z,62.48
2023-09-17T10:01:49.938Z,60.92
2023-09-17T10:05:20.799Z,59.00
2023-09-17T10:08:31.400Z,59.49
2023-09-17T10:11:59.359Z,59.14
2023-09-17T10:15:47.395Z,58.80
2023-09-17T10:19:15.580Z,58.51
2023-09-17T10:22:50.929Z,58.69
2023-09-17T10:26:22.392Z,58.67
2023-09-17T10:29:45.924Z,58.59
2023-09-17T10:33:13.761Z,58.52
2023-09-17T10:36:32.258Z,58.65
2023-09-17T10:40:01.992Z,59.02
2023-09-17T10:43:31.807Z,58.46
2023-09-17T10:46:01.699Z,58.61
2023-09-17T10:48:35.265Z,58.09
2023-09-17T10:51:16.767Z,58.60
2023-09-17T10:53:46.984Z,59.03
2023-09-17T10:56:46.295Z,58.24
2023-09-17T11:00:13.937Z,56.84
2023-09-17T11:03:47.724Z,54.87
2023-09-17T11:06:56.418Z,52.17
2023-09-17T11:10:21.220Z,51.46
2023-09-17T11:13:29.257Z,49.39
2023-09-17T11:16:50.781Z,48.64
2023-09-17T11:19:59.668Z,47.39
2023-09-17T11:23:14.156Z,48.31
2023-09-17T11:26:54.472Z,47.56
2023-09-17T11:30:10.396Z,47.88
2023-09-17T11:33:17.998Z,47.06
2023-09-17T11:36:47.795Z,45.76
2023-09-17T11:40:16.389Z,46.47
2023-09-17T11:43:25.415Z,45.40
2023-09-17T11:46:15.106Z,44.24
2023-09-17T11:49:45.615Z,44.11
2023-09-17T11:52:57.451Z,45.92
2023-09-17T11:56:20.288Z,45.01
2023-09-17T11:59:09.941Z,46.66
2023-09-17T12:02:02.576Z,46.75
2023-09-17T12:04:38.690Z,44.74
2023-09-17T12:07:55.687Z,43.17
2023-09-17T12:10:37.714Z,42.95
2023-09-17T12:13:42.881Z,43.59
2023-09-17T12:16:39.100Z,42.75
2023-09-17T12:19:26.980Z,43.77
2023-09-17T12:22:13.430Z,43.10
2023-09-17T12:25:27.418Z,43.43
2023-09-17T12:28:37.841Z,44.27
2023-09-17T12:31:28.137Z,43.82
2023-09-17T12:34:41.891Z,42.66
2023-09-17T12:37:11.979Z,43.11
2023-09-17T12:40:01.717Z,43.24
2023-09-17T12:43:19.164Z,43.24
2023-09-17T12:45:51.111Z,42.34
2023-09-17T12:48:21.276Z,43.30
2023-09-17T12:51:18.743Z,42.69
2023-09-17T12:53:51.846Z,42.71
2023-09-17T12:56:21.473Z,42.90
2023-09-17T12:59:26.224Z,42.92
2023-09-17T13:02:27.146Z,43.29
2023-09-17T13:05:51.131Z,43.29
2023-09-17T13:08:31.855Z,42.76
2023-09-17T13:11:02.304Z,42.56
2023-09-17T13:13:32.185Z,40.76
2023-09-17T13:16:22.754Z,39.98
2023-09-17T13:18:58.014Z,38.98
2023-09-17T13:21:35.041Z,38.84
2023-09-17T13:24:05.107Z,39.25
2023-09-17T13:26:34.536Z,38.77
2023-09-17T13:29:01.929Z,39.31
2023-09-17T13:31:42.708Z,38.13
2023-09-17T13:34:22.455Z,37.19
2023-09-17T13:36:58.546Z,37.47
2023-09-17T13:39:31.429Z,37.69
2023-09-17T13:42:03.801Z,37.22
2023-09-17T13:44:36.054Z,36.45
2023-09-17T13:47:24.108Z,35.73
2023-09-17T13:50:20.535Z,36.10
2023-09-17T13:52:50.569Z,36.76
2023-09-17T13:55:41.375Z,37.20
2023-09-17T13:58:08.780Z,37.69
2023-09-17T14:00:36.463Z,38.76
2023-09-17T14:03:07.962Z,38.29
2023-09-17T14:05:35.221Z,38.10
2023-09-17T14:08:02.130Z,37.85
2023-09-17T14:10:30.158Z,38.01
2023-09-17T14:13:05.165Z,38.75
2023-09-17T14:15:36.653Z,38.52
2023-09-17T14:18:04.060Z,38.07
2023-09-17T14:20:30.814Z,38.16
2023-09-17T14:23:03.470Z,37.79
2023-09-17T14:25:33.586Z,37.77
2023-09-17T14:28:00.572Z,37.75
2023-09-17T14:30:28.793Z,37.12
2023-09-17T14:32:58.399Z,37.48
2023-09-17T14:35:27.125Z,37.19
2023-09-17T14:37:57.716Z,36.64
2023-09-17T14:40:24.620Z,36.93
2023-09-17T14:42:52.046Z,37.08
2023-09-17T14:45:22.406Z,38.01
2023-09-17T14:47:50.700Z,38.23
2023-09-17T14:50:24.360Z,38.74
2023-09-17T14:52:57.824Z,39.55
2023-09-17T14:55:27.478Z,39.35
2023-09-17T14:57:54.637Z,39.74
2023-09-17T15:01:05.970Z,39.36
2023-09-17T15:04:11.314Z,39.66
2023-09-17T15:07:07.102Z,39.59
2023-09-17T15:10:09.432Z,39.80
2023-09-17T15:12:49.502Z,40.31
2023-09-17T15:15:16.675Z,40.20
2023-09-17T15:17:55.948Z,40.78
2023-09-17T15:20:26.826Z,41.92
2023-09-17T15:22:56.498Z,41.67
2023-09-17T15:25:45.531Z,41.95
2023-09-17T15:29:12.470Z,41.82
2023-09-17T15:32:11.824Z,42.20
2023-09-17T15:35:29.631Z,42.72
2023-09-17T15:38:16.458Z,43.30
2023-09-17T15:41:42.066Z,43.76
2023-09-17T15:44:34.672Z,44.11
2023-09-17T15:48:05.488Z,44.95
2023-09-17T15:50:51.998Z,46.26
2023-09-17T15:53:24.117Z,46.44
2023-09-17T15:55:54.263Z,47.14
2023-09-17T15:58:31.573Z,47.13
2023-09-17T16:01:11.419Z,47.76
2023-09-17T16:03:48.355Z,48.99
2023-09-17T16:06:23.528Z,48.57
2023-09-17T16:08:54.685Z,49.42
2023-09-17T16:11:22.007Z,49.77
2023-09-17T16:13:52.263Z,50.17
2023-09-17T16:16:21.818Z,51.14
2023-09-17T16:18:48.728Z,52.00
2023-09-17T16:21:19.249Z,52.23
2023-09-17T16:23:58.885Z,52.22
2023-09-17T16:26:58.977Z,52.52
2023-09-17T16:29:27.151Z,52.61
2023-09-17T16:31:54.198Z,53.87
2023-09-17T16:34:21.335Z,53.95
2023-09-17T16:37:11.337Z,53.89
2023-09-17T16:39:38.295Z,54.61
2023-09-17T16:42:36.717Z,55.13
2023-09-17T16:45:53.402Z,56.01
2023-09-17T16:49:13.673Z,56.66
2023-09-17T16:52:47.069Z,56.76
2023-09-17T16:55:46.950Z,57.09
2023-09-17T16:59:14.898Z,58.20
2023-09-17T17:02:07.503Z,58.36
2023-09-17T17:05:29.058Z,58.13
2023-09-17T17:09:07.840Z,58.74
2023-09-17T17:11:57.125Z,59.23
2023-09-17T17:14:55.004Z,58.95
2023-09-17T17:18:35.482Z,59.62
2023-09-17T17:21:52.051Z,60.45
2023-09-17T17:24:27.495Z,61.39
2023-09-17T17:27:18.676Z,62.02
2023-09-17T17:29:45.838Z,62.41
2023-09-17T17:32:30.455Z,62.62
2023-09-17T17:36:10.936Z,61.84
2023-09-17T17:39:06.886Z,62.81
2023-09-17T17:41:34.319Z,63.14
2023-09-17T17:44:35.281Z,63.46
2023-09-17T17:47:03.586Z,65.31
2023-09-17T17:50:03.985Z,64.49
2023-09-17T17:53:01.829Z,64.64
2023-09-17T17:56:13.450Z,66.09
2023-09-17T17:59:23.576Z,66.06
2023-09-17T18:02:26.205Z,65.98
2023-09-17T18:05:18.956Z,66.23
2023-09-17T18:08:17.818Z,66.75
2023-09-17T18:10:50.458Z,67.48
2023-09-17T18:13:46.689Z,66.95
2023-09-17T18:16:39.418Z,68.05
2023-09-17T18:19:27.141Z,67.89
2023-09-17T18:21:57.209Z,69.55
2023-09-17T18:24:42.308Z,71.03
2023-09-17T18:27:10.521Z,70.98
2023-09-17T18:29:44.613Z,71.47
2023-09-17T18:32:40.220Z,70.39
2023-09-17T18:35:29.930Z,71.94
2023-09-17T18:38:40.185Z,73.03
2023-09-17T18:41:30.071Z,74.52
2023-09-17T18:44:14.140Z,73.00
2023-09-17T18:47:31.898Z,72.94
2023-09-17T18:50:24.648Z,72.60
2023-09-17T18:53:54.445Z,73.83
2023-09-17T18:56:44.396Z,75.19
2023-09-17T18:59:24.104Z,73.76
2023-09-17T19:02:09.035Z,75.26
2023-09-17T19:05:05.610Z,75.09
2023-09-17T19:07:41.830Z,75.24
2023-09-17T19:10:30.565Z,75.16
2023-09-17T19:13:13.508Z,75.87
2023-09-17T19:16:01.749Z,77.50
2023-09-17T19:19:11.702Z,76.86
2023-09-17T19:22:23.242Z,76.78
2023-09-17T19:25:00.687Z,77.37
2023-09-17T19:27:41.376Z,79.17
2023-09-17T19:30:35.527Z,78.66
2023-09-17T19:33:08.451Z,77.75
2023-09-17T19:36:07.523Z,78.82
2023-09-17T19:38:57.885Z,80.91
2023-09-17T19:41:34.156Z,80.46
2023-09-17T19:44:26.211Z,81.97
2023-09-17T19:47:10.218Z,82.26
2023-09-17T19:49:47.793Z,81.47
2023-09-17T19:52:18.467Z,80.88
2023-09-17T19:55:06.254Z,81.14
2023-09-17T19:57:40.339Z,81.01
2023-09-17T20:00:57.961Z,81.72
2023-09-17T20:04:13.042Z,82.01
2023-09-17T20:06:54.660Z,82.49
2023-09-17T20:09:52.939Z,81.56
2023-09-17T20:12:28.442Z,81.15
2023-09-17T20:15:07.284Z,81.94
2023-09-17T20:17:57.976Z,82.54
2023-09-17T20:20:34.164Z,82.55
2023-09-17T20:23:11.988Z,82.32
2023-09-17T20:26:17.194Z,81.58
2023-09-17T20:29:12.732Z,82.77
2023-09-17T20:32:22.197Z,84.12
2023-09-17T20:35:27.543Z,84.37
2023-09-17T20:38:40.302Z,84.32
2023-09-17T20:42:27.914Z,84.86
2023-09-17T20:46:04.893Z,84.45
2023-09-17T20:49:52.750Z,83.88
2023-09-17T20:53:25.794Z,84.33
2023-09-17T20:56:38.394Z,84.63
2023-09-17T20:59:39.318Z,85.68
2023-09-17T21:02:27.784Z,84.95
2023-09-17T21:05:02.860Z,84.72
2023-09-17T21:08:13.314Z,85.41
2023-09-17T21:10:51.731Z,85.23
2023-09-17T21:13:34.727Z,85.43
2023-09-17T21:16:28.744Z,85.16
2023-09-17T21:19:14.650Z,84.73
2023-09-17T21:21:45.002Z,86.73
2023-09-17T21:25:06.368Z,86.05
2023-09-17T21:27:44.788Z,85.29
2023-09-17T21:30:32.847Z,86.19
2023-09-17T21:33:49.260Z,85.69
2023-09-17T21:36:36.518Z,85.07
2023-09-17T21:39:38.913Z,86.05
2023-09-17T21:42:25.272Z,86.44
2023-09-17T21:45:16.576Z,87.45
2023-09-17T21:48:15.565Z,87.00
2023-09-17T21:50:54.741Z,87.42
2023-09-17T21:53:50.465Z,87.30
2023-09-17T21:56:41.150Z,86.87
2023-09-17T21:59:17.145Z,86.85
2023-09-17T22:01:49.957Z,87.80
2023-09-17T22:05:08.075Z,89.24
2023-09-17T22:07:54.114Z,88.74
2023-09-17T22:10:21.669Z,87.79
2023-09-17T22:13:07.488Z,87.78
2023-09-17T22:15:36.889Z,87.95
2023-09-17T22:18:37.306Z,88.83
2023-09-17T22:21:44.205Z,88.68
2023-09-17T22:24:39.520Z,88.61
2023-09-17T22:27:21.515Z,88.67
2023-09-17T22:29:53.808Z,89.28
2023-09-17T22:32:37.903Z,89.05
2023-09-17T22:35:10.728Z,88.67
2023-09-17T22:38:13.425Z,89.73
2023-09-17T22:41:14.331Z,89.78
2023-09-17T22:43:48.499Z,90.49
2023-09-17T22:46:30.943Z,90.29
2023-09-17T22:49:38.143Z,90.45
2023-09-17T22:52:05.885Z,91.17
2023-09-17T22:55:02.813Z,90.50
2023-09-17T22:58:33.323Z,89.42
2023-09-17T23:01:39.203Z,90.84
2023-09-17T23:04:32.848Z,90.97
2023-09-17T23:07:23.112Z,92.06
2023-09-17T23:10:03.960Z,91.59
2023-09-17T23:13:11.400Z,90.43
2023-09-17T23:16:24.860Z,90.37
2023-09-17T23:19:13.650Z,91.08
2023-09-17T23:22:05.857Z,91.91
2023-09-17T23:25:04.967Z,92.29
2023-09-17T23:28:21.118Z,92.09
2023-09-17T23:31:04.462Z,91.48
2023-09-17T23:34:01.543Z,91.97
2023-09-17T23:36:59.188Z,92.27
2023-09-17T23:40:20.687Z,92.38
2023-09-17T23:43:03.089Z,91.93
2023-09-17T23:45:42.165Z,91.83
2023-09-17T23:49:00.487Z,92.25
2023-09-17T23:51:55.718Z,92.56
2023-09-17T23:54:28.067Z,90.80
2023-09-17T23:57:17.505Z,90.97
2023-09-17T23:59:49.993Z,90.65
